Wednesday, January 28, 2015
14:13 UTC
  |  Log In   |  Register Free
Airport Search:

Carmi Municipal Airport
(KCUL)

Carmi Municipal Airport Diagram
No Airport Diagram Available

FAA data valid effective January 08, 2015 - March 05, 2015 (unless otherwise noted).

 
 
 
 
 
 
 
 
 
 
 
 
 
 

Current Aviation Weather for Carmi Municipal Airport (KCUL)

The most recent METAR observation for KCUL was updated at: 1408
METAR Summary (Translated METAR)
KCUL
281355Z AUTO 09004KT 7SM CLR M01/M02 A3032 RMK AO2 T10121018
KFWC
281355Z AUTO 11006KT 10SM CLR M02/M04 A3031 RMK AO1 T10201037
(22.1 nm NW from KCUL)
KHSB
281355Z AUTO 12007KT 5SM BR CLR M01/M01 A3033 RMK AO2 T10101015
(26.2 nm SW from KCUL)
TAF
No TAF information found within 50 nm of KCUL
  Airport Weather Conditions for KCUL

 Current Weather at CUL
26° F
Fair
North winds at 0.0 mph
CUL NOAA Radar

Pressure: 30.32 in
Humidity: 97%
Wind: Calm
Dew Point: 25.0°F
Visibility: 7.00 mi


Airport Weather Forecast for KCUL

Translated METAR and TAF for KCUL
Translated METAR for KCUL (1413 UTC 28 January 2015)
found at http://aviationweather.gov/adds/metars/
 
METAR text: KCUL 281355Z AUTO 09004KT 7SM CLR M01/M02 A3032 RMK AO2 T10121018
Conditions at: KCUL (CARMI MUNI , IL, US) observed 1355 UTC 28 January 2015
Temperature: -1.2°C (30°F)
Dewpoint: -1.8°C (29°F) [RH = 96%]
Pressure (altimeter): 30.32 inches Hg (1026.8 mb)
Winds: from the E (90 degrees) at 5 MPH (4 knots; 2.1 m/s)
Visibility: 7 miles (11 km)
Ceiling: at least 12,000 feet AGL
Clouds: sky clear below 12,000 feet AGL
Weather: automated observation with no human augmentation;
there may or may not be significant weather present at this time
Translated TAF for KCUL

There is no translated TAF available for this airport

Find All Airport Services Find A Hotel Find A Rental Car Find A Golf Course Find A Restaurant $100 Hamburger



FBO's on the Field
FBO Company Facility Photos Services Transportation Aviation Fuel Prices: Prices include tax
Catering Weather Repair Courtesy Rental Type 100LL JetA JetA+ MOGAS 8087
 
Carmi Municipal Airport

This FBO has not yet been rated
FS:Shell
Last Updated: Jan-12
Login to update fuel prices
SS:
Contact Carmi Municipal AirportMore FBO Information
 
Carmi Municipal Airport

This FBO has not yet been rated
FS:Shell
Last Updated: Jan-27
Login to update fuel prices
SS:
Contact Carmi Municipal AirportMore FBO Information
 
Add another FBO Facility Photos Catering Weather Repair Courtesy Rental Type 100LL JetA JetA+ MOGAS 8087
Services Transportation Aviation Fuel Prices: Prices include tax


model-print
model-print
model-print
model-print